createdAt,value
2019-01-03T00:01:00.780Z,21.80
2019-01-03T00:03:47.037Z,21.81
2019-01-03T00:06:33.834Z,21.81
2019-01-03T00:09:10.424Z,21.78
2019-01-03T00:11:57.360Z,21.78
2019-01-03T00:14:43.244Z,21.71
2019-01-03T00:17:29.674Z,21.68
2019-01-03T00:20:16.399Z,21.72
2019-01-03T00:23:02.706Z,21.67
2019-01-03T00:25:55.721Z,21.68
2019-01-03T00:28:54.822Z,21.62
2019-01-03T00:31:54.453Z,21.58
2019-01-03T00:34:44.230Z,21.58
2019-01-03T00:37:31.958Z,21.61
2019-01-03T00:40:15.249Z,21.60
2019-01-03T00:43:05.672Z,21.58
2019-01-03T00:45:51.061Z,21.56
2019-01-03T00:48:37.378Z,21.60
2019-01-03T00:51:23.458Z,21.55
2019-01-03T00:54:10.628Z,21.54
2019-01-03T00:56:52.061Z,21.53
2019-01-03T00:59:38.791Z,21.54
2019-01-03T01:02:28.032Z,21.52
2019-01-03T01:05:13.887Z,21.54
2019-01-03T01:08:07.506Z,21.27
2019-01-03T01:11:07.427Z,21.27
2019-01-03T01:14:03.758Z,21.42
2019-01-03T01:16:42.964Z,21.42
2019-01-03T01:19:37.537Z,21.42
2019-01-03T01:22:23.770Z,21.42
2019-01-03T01:25:10.065Z,21.34
2019-01-03T01:27:56.886Z,21.39
2019-01-03T01:30:53.409Z,21.24
2019-01-03T01:33:47.600Z,21.24
2019-01-03T01:36:33.906Z,21.27
2019-01-03T01:39:29.910Z,21.33
2019-01-03T01:42:32.349Z,21.25
2019-01-03T01:45:28.963Z,21.25
2019-01-03T01:48:24.761Z,21.37
2019-01-03T01:51:10.469Z,21.32
2019-01-03T01:53:57.758Z,21.33
2019-01-03T01:56:59.997Z,21.25
2019-01-03T01:59:44.504Z,21.26
2019-01-03T02:02:30.480Z,21.27
2019-01-03T02:05:16.459Z,21.30
2019-01-03T02:07:59.254Z,21.26
2019-01-03T02:10:46.275Z,21.18
2019-01-03T02:13:39.467Z,21.19
2019-01-03T02:16:35.253Z,21.23
2019-01-03T02:19:28.810Z,21.16
2019-01-03T02:22:14.020Z,21.16
2019-01-03T02:25:00.015Z,21.12
2019-01-03T02:27:56.464Z,21.10
2019-01-03T02:30:36.772Z,21.04
2019-01-03T02:33:38.034Z,21.10
2019-01-03T02:36:24.735Z,21.13
2019-01-03T02:39:27.750Z,21.03
2019-01-03T02:42:13.100Z,21.03
2019-01-03T02:44:59.897Z,21.06
2019-01-03T02:47:50.238Z,20.94
2019-01-03T02:50:48.801Z,20.94
2019-01-03T02:53:34.244Z,20.95
2019-01-03T02:56:30.252Z,20.99
2019-01-03T02:59:16.028Z,20.86
2019-01-03T03:02:18.373Z,20.97
2019-01-03T03:04:59.845Z,20.98
2019-01-03T03:07:50.382Z,20.92
2019-01-03T03:10:43.607Z,20.92
2019-01-03T03:13:30.511Z,20.95
2019-01-03T03:16:20.562Z,20.94
2019-01-03T03:18:59.765Z,20.94
2019-01-03T03:22:04.842Z,20.95
2019-01-03T03:24:43.252Z,20.94
2019-01-03T03:27:28.864Z,20.93
2019-01-03T03:30:15.045Z,20.92
2019-01-03T03:33:02.253Z,20.81
2019-01-03T03:35:49.438Z,20.91
2019-01-03T03:38:35.977Z,20.90
2019-01-03T03:41:35.373Z,20.90
2019-01-03T03:44:21.426Z,20.87
2019-01-03T03:47:08.255Z,20.83
2019-01-03T03:49:51.438Z,20.81
2019-01-03T03:52:37.436Z,20.85
2019-01-03T03:55:20.802Z,20.91
2019-01-03T03:58:24.460Z,20.84
2019-01-03T04:03:15.105Z,20.84
2019-01-03T04:06:01.476Z,20.82
2019-01-03T04:08:48.442Z,20.83
2019-01-03T04:11:46.390Z,20.83
2019-01-03T04:14:29.044Z,20.81
2019-01-03T04:17:15.546Z,20.78
2019-01-03T04:20:05.745Z,20.79
2019-01-03T04:22:52.447Z,20.78
2019-01-03T04:25:52.253Z,20.79
2019-01-03T04:28:57.785Z,20.84
2019-01-03T04:31:43.486Z,20.76
2019-01-03T04:34:32.046Z,20.75
2019-01-03T04:37:21.648Z,20.74
2019-01-03T04:40:07.807Z,20.72
2019-01-03T04:43:07.511Z,20.68
2019-01-03T04:45:57.341Z,20.70
2019-01-03T04:48:54.514Z,20.75
2019-01-03T04:51:59.787Z,20.73
2019-01-03T04:55:02.533Z,20.75
2019-01-03T04:58:00.958Z,20.75
2019-01-03T05:01:03.458Z,20.73
2019-01-03T05:04:08.862Z,20.72
2019-01-03T05:07:08.793Z,20.67
2019-01-03T05:09:55.444Z,20.67
2019-01-03T05:12:48.456Z,20.65
2019-01-03T05:15:29.799Z,20.67
2019-01-03T05:18:16.761Z,20.64
2019-01-03T05:21:16.251Z,20.64
2019-01-03T05:23:57.451Z,20.59
2019-01-03T05:26:42.496Z,20.66
2019-01-03T05:29:27.500Z,20.66
2019-01-03T05:32:13.785Z,20.64
2019-01-03T05:35:09.998Z,20.65
2019-01-03T05:38:03.986Z,20.65
2019-01-03T05:40:50.643Z,20.63
2019-01-03T05:43:42.462Z,20.60
2019-01-03T05:46:28.021Z,20.59
2019-01-03T05:49:14.341Z,20.61
2019-01-03T05:51:59.442Z,20.58
2019-01-03T05:54:45.015Z,20.56
2019-01-03T05:57:30.967Z,20.59
2019-01-03T06:00:19.038Z,20.60
2019-01-03T06:03:12.038Z,20.57
2019-01-03T06:05:57.366Z,20.62
2019-01-03T06:08:43.599Z,20.62
2019-01-03T06:11:33.635Z,20.60
2019-01-03T06:14:19.376Z,20.58
2019-01-03T06:17:05.055Z,20.53
2019-01-03T06:19:51.609Z,20.61
2019-01-03T06:22:47.654Z,20.64
2019-01-03T06:25:33.366Z,20.60
2019-01-03T06:28:32.371Z,20.60
2019-01-03T06:31:18.866Z,20.58
2019-01-03T06:34:04.685Z,20.59
2019-01-03T06:36:54.555Z,20.59
2019-01-03T06:39:39.011Z,20.57
2019-01-03T06:42:29.763Z,20.56
2019-01-03T06:45:15.422Z,20.60
2019-01-03T06:48:05.406Z,20.58
2019-01-03T06:50:44.750Z,20.59
2019-01-03T06:53:24.879Z,20.60
2019-01-03T06:56:21.795Z,20.68
2019-01-03T06:59:09.040Z,20.68
2019-01-03T07:01:54.872Z,20.72
2019-01-03T07:04:40.791Z,20.63
2019-01-03T07:07:26.349Z,20.63
2019-01-03T07:10:13.439Z,20.60
2019-01-03T07:12:59.886Z,20.56
2019-01-03T07:15:46.596Z,20.51
2019-01-03T07:18:40.503Z,20.51
2019-01-03T07:21:27.297Z,20.54
2019-01-03T07:24:25.362Z,20.55
2019-01-03T07:27:09.787Z,20.60
2019-01-03T07:29:59.071Z,20.58
2019-01-03T07:32:58.159Z,20.55
2019-01-03T07:35:44.469Z,20.51
2019-01-03T07:38:35.397Z,20.51
2019-01-03T07:41:31.500Z,20.56
2019-01-03T07:44:21.449Z,20.55
2019-01-03T07:47:07.538Z,20.51
2019-01-03T07:49:57.503Z,20.56
2019-01-03T07:52:43.610Z,20.54
2019-01-03T07:55:33.512Z,20.53
2019-01-03T07:58:32.508Z,20.56
2019-01-03T08:01:25.101Z,20.56
2019-01-03T08:04:27.869Z,20.54
2019-01-03T08:07:15.633Z,20.63
2019-01-03T08:09:56.502Z,20.63
2019-01-03T08:12:42.490Z,20.63
2019-01-03T08:15:29.192Z,20.59
2019-01-03T08:18:16.328Z,20.58
2019-01-03T08:21:03.433Z,20.60
2019-01-03T08:23:50.519Z,20.66
2019-01-03T08:26:43.692Z,19.63
2019-01-03T08:29:29.485Z,20.65
2019-01-03T08:32:09.342Z,20.59
2019-01-03T08:35:00.244Z,20.56
2019-01-03T08:37:46.842Z,20.69
2019-01-03T08:40:37.011Z,20.68
2019-01-03T08:43:27.044Z,20.68
2019-01-03T08:46:15.559Z,20.64
2019-01-03T08:49:00.701Z,20.71
2019-01-03T08:51:46.452Z,20.69
2019-01-03T08:54:29.010Z,20.70
2019-01-03T08:57:17.077Z,20.73
2019-01-03T09:00:04.577Z,20.74
2019-01-03T09:02:44.246Z,20.83
2019-01-03T09:05:33.988Z,20.86
2019-01-03T09:08:20.804Z,20.85
2019-01-03T09:11:17.501Z,20.87
2019-01-03T09:14:04.245Z,20.89
2019-01-03T09:16:51.497Z,20.90
2019-01-03T09:19:37.976Z,20.94
2019-01-03T09:22:25.220Z,20.95
2019-01-03T09:25:21.242Z,20.93
2019-01-03T09:28:05.857Z,20.95
2019-01-03T09:31:03.410Z,21.05
2019-01-03T09:33:54.252Z,21.05
2019-01-03T09:36:41.404Z,21.07
2019-01-03T09:39:31.789Z,21.03
2019-01-03T09:42:33.955Z,21.08
2019-01-03T09:45:01.259Z,21.10
2019-01-03T09:47:30.002Z,21.12
2019-01-03T09:49:58.749Z,21.16
2019-01-03T09:52:26.515Z,21.16
2019-01-03T09:54:54.166Z,21.12
2019-01-03T09:57:22.038Z,21.21
2019-01-03T09:59:50.017Z,21.25
2019-01-03T10:02:17.388Z,21.29
2019-01-03T10:04:45.460Z,21.28
2019-01-03T10:07:13.437Z,21.34
2019-01-03T10:09:41.410Z,21.34
2019-01-03T10:12:08.931Z,21.37
2019-01-03T10:14:36.500Z,21.38
2019-01-03T10:17:04.048Z,21.44
2019-01-03T10:19:31.884Z,21.42
2019-01-03T10:21:59.250Z,21.43
2019-01-03T10:24:26.796Z,21.43
2019-01-03T10:26:54.801Z,21.43
2019-01-03T10:29:22.352Z,21.43
2019-01-03T10:31:50.917Z,21.47
2019-01-03T10:34:19.441Z,21.48
2019-01-03T10:36:47.257Z,21.48
2019-01-03T10:39:14.918Z,21.46
2019-01-03T10:41:42.914Z,21.48
2019-01-03T10:44:10.363Z,21.41
2019-01-03T10:46:38.581Z,21.41
2019-01-03T10:49:05.844Z,21.49
2019-01-03T10:51:33.613Z,21.49
2019-01-03T10:54:00.847Z,21.46
2019-01-03T10:56:28.667Z,21.51
2019-01-03T10:58:56.533Z,21.49
2019-01-03T11:01:24.794Z,21.63
2019-01-03T11:03:53.400Z,21.60
2019-01-03T11:06:21.430Z,21.62
2019-01-03T11:08:49.097Z,21.63
2019-01-03T11:11:17.014Z,21.68
2019-01-03T11:13:45.448Z,21.67
2019-01-03T11:16:12.736Z,21.73
2019-01-03T11:18:39.615Z,21.72
2019-01-03T11:21:07.792Z,21.75
2019-01-03T11:23:36.484Z,21.74
2019-01-03T11:26:03.752Z,21.73
2019-01-03T11:28:31.450Z,21.72
2019-01-03T11:30:59.239Z,21.79
2019-01-03T11:33:26.492Z,21.83
2019-01-03T11:35:54.213Z,21.82
2019-01-03T11:38:21.755Z,21.87
2019-01-03T11:40:49.243Z,21.89
2019-01-03T11:43:17.507Z,21.89
2019-01-03T11:45:45.415Z,21.90
2019-01-03T11:48:13.374Z,21.93
2019-01-03T11:50:41.344Z,21.85
2019-01-03T11:53:09.067Z,21.87
2019-01-03T11:55:37.239Z,21.88
2019-01-03T11:58:05.741Z,21.95
2019-01-03T12:00:33.006Z,21.91
2019-01-03T12:03:01.049Z,21.90
2019-01-03T12:05:28.602Z,21.92
2019-01-03T12:07:57.502Z,21.91
2019-01-03T12:10:25.669Z,21.89
2019-01-03T12:12:53.036Z,21.90
2019-01-03T12:15:20.447Z,21.96
2019-01-03T12:17:49.026Z,21.94
2019-01-03T12:20:17.370Z,21.99
2019-01-03T12:22:44.599Z,21.96
2019-01-03T12:25:11.872Z,21.93
2019-01-03T12:27:40.434Z,21.93
2019-01-03T12:30:09.438Z,21.93
2019-01-03T12:32:36.711Z,21.95
2019-01-03T12:35:03.740Z,21.97
2019-01-03T12:37:31.478Z,21.97
2019-01-03T12:39:58.614Z,21.96
2019-01-03T12:42:26.592Z,21.96
2019-01-03T12:44:53.889Z,22.00
2019-01-03T12:47:21.813Z,21.95
2019-01-03T12:49:50.841Z,21.93
2019-01-03T12:52:19.361Z,21.92
2019-01-03T12:54:47.238Z,21.96
2019-01-03T12:57:15.013Z,21.97
2019-01-03T12:59:42.983Z,21.93
2019-01-03T13:02:10.402Z,21.97
2019-01-03T13:04:38.507Z,21.93
2019-01-03T13:07:06.734Z,21.88
2019-01-03T13:09:34.249Z,21.92
2019-01-03T13:12:01.580Z,21.90
2019-01-03T13:14:30.008Z,21.91
2019-01-03T13:16:57.389Z,21.88
2019-01-03T13:19:25.501Z,21.95
2019-01-03T13:21:53.379Z,21.87
2019-01-03T13:24:22.235Z,21.88
2019-01-03T13:26:49.851Z,21.87
2019-01-03T13:29:17.783Z,21.84
2019-01-03T13:31:46.059Z,21.84
2019-01-03T13:34:14.239Z,21.88
2019-01-03T13:36:43.015Z,21.88
2019-01-03T13:39:11.125Z,21.93
2019-01-03T13:41:39.053Z,21.92
2019-01-03T13:44:06.381Z,21.91
2019-01-03T13:46:33.782Z,21.90
2019-01-03T13:49:01.153Z,21.85
2019-01-03T13:51:28.418Z,21.87
2019-01-03T13:53:55.693Z,21.81
2019-01-03T13:56:22.865Z,21.86
2019-01-03T13:58:51.451Z,21.95
2019-01-03T14:01:18.982Z,21.95
2019-01-03T14:03:46.375Z,21.87
2019-01-03T14:06:13.710Z,21.75
2019-01-03T14:08:41.070Z,21.84
2019-01-03T14:11:09.040Z,21.83
2019-01-03T14:13:36.603Z,21.82
2019-01-03T14:16:04.461Z,21.75
2019-01-03T14:18:32.408Z,21.82
2019-01-03T14:21:00.108Z,21.85
2019-01-03T14:23:28.602Z,21.83
2019-01-03T14:25:56.344Z,21.81
2019-01-03T14:28:23.787Z,21.85
2019-01-03T14:30:51.102Z,21.86
2019-01-03T14:33:18.452Z,21.89
2019-01-03T14:35:46.772Z,21.86
2019-01-03T14:38:14.806Z,21.81
2019-01-03T14:40:42.438Z,21.80
2019-01-03T14:43:10.783Z,21.78
2019-01-03T14:45:38.763Z,21.87
2019-01-03T14:48:06.426Z,21.86
2019-01-03T14:50:33.899Z,21.83
2019-01-03T14:53:01.777Z,21.83
2019-01-03T14:55:29.024Z,21.86
2019-01-03T14:57:56.448Z,21.88
2019-01-03T15:00:24.821Z,21.90
2019-01-03T15:02:52.893Z,21.87
2019-01-03T15:05:20.965Z,21.86
2019-01-03T15:07:48.489Z,21.84
2019-01-03T15:10:16.026Z,21.74
2019-01-03T15:12:46.053Z,21.83
2019-01-03T15:15:15.708Z,21.86
2019-01-03T15:17:42.906Z,21.90
2019-01-03T15:20:11.367Z,21.91
2019-01-03T15:22:39.458Z,21.86
2019-01-03T15:25:06.793Z,21.81
2019-01-03T15:27:34.496Z,21.84
2019-01-03T15:30:02.491Z,21.82
2019-01-03T15:32:30.560Z,21.83
2019-01-03T15:34:58.091Z,21.80
2019-01-03T15:37:26.435Z,21.80
2019-01-03T15:39:55.478Z,21.75
2019-01-03T15:42:23.433Z,21.69
2019-01-03T15:44:51.451Z,21.68
2019-01-03T15:47:19.500Z,21.68
2019-01-03T15:49:46.803Z,21.65
2019-01-03T15:52:14.106Z,21.71
2019-01-03T15:54:41.765Z,21.67
2019-01-03T15:57:09.693Z,21.56
2019-01-03T15:59:36.615Z,21.56
2019-01-03T16:02:05.046Z,21.51
2019-01-03T16:04:32.384Z,21.51
2019-01-03T16:06:59.605Z,21.66
2019-01-03T16:09:27.931Z,21.75
2019-01-03T16:11:55.244Z,21.75
2019-01-03T16:14:23.602Z,21.81
2019-01-03T16:16:50.879Z,21.85
2019-01-03T16:19:18.602Z,21.92
2019-01-03T16:21:46.347Z,21.96
2019-01-03T16:24:14.208Z,21.83
2019-01-03T16:26:42.083Z,21.87
2019-01-03T16:29:09.921Z,21.90
2019-01-03T16:31:37.609Z,22.06
2019-01-03T16:34:06.274Z,22.07
2019-01-03T16:36:34.246Z,22.11
2019-01-03T16:39:03.007Z,22.09
2019-01-03T16:41:31.423Z,22.07
2019-01-03T16:43:59.460Z,22.00
2019-01-03T16:46:27.438Z,22.03
2019-01-03T16:48:55.242Z,21.98
2019-01-03T16:51:22.793Z,21.95
2019-01-03T16:53:50.534Z,21.93
2019-01-03T16:56:18.438Z,21.98
2019-01-03T16:58:45.836Z,22.01
2019-01-03T17:01:13.247Z,22.01
2019-01-03T17:03:41.426Z,22.01
2019-01-03T17:06:08.872Z,22.01
2019-01-03T17:08:36.996Z,21.99
2019-01-03T17:11:05.094Z,21.99
2019-01-03T17:14:31.961Z,22.03
2019-01-03T17:17:00.931Z,22.23
2019-01-03T17:19:29.871Z,22.25
2019-01-03T17:22:05.045Z,21.94
2019-01-03T17:24:33.772Z,21.94
2019-01-03T17:27:01.815Z,22.14
2019-01-03T17:29:33.854Z,22.15
2019-01-03T17:32:02.348Z,22.11
2019-01-03T17:34:31.797Z,22.11
2019-01-03T17:36:59.676Z,22.23
2019-01-03T17:39:27.803Z,22.25
2019-01-03T17:41:56.472Z,22.36
2019-01-03T17:44:25.370Z,22.36
2019-01-03T17:46:54.374Z,22.34
2019-01-03T17:49:22.780Z,22.27
2019-01-03T17:51:52.434Z,22.28
2019-01-03T17:54:21.126Z,22.28
2019-01-03T17:56:48.820Z,22.28
2019-01-03T17:59:17.342Z,22.44
2019-01-03T18:01:45.877Z,22.44
2019-01-03T18:04:13.977Z,22.42
2019-01-03T18:06:43.329Z,22.33
2019-01-03T18:09:11.844Z,22.33
2019-01-03T18:11:39.763Z,22.26
2019-01-03T18:14:07.693Z,22.26
2019-01-03T18:16:35.774Z,22.30
2019-01-03T18:19:04.733Z,22.31
2019-01-03T18:21:33.095Z,22.31
2019-01-03T18:24:01.615Z,22.29
2019-01-03T18:26:30.763Z,22.29
2019-01-03T18:29:18.496Z,22.34
2019-01-03T18:31:45.863Z,22.25
2019-01-03T18:34:13.284Z,22.32
2019-01-03T18:38:18.249Z,22.22
2019-01-03T18:40:45.491Z,22.24
2019-01-03T18:43:14.481Z,22.32
2019-01-03T18:45:42.041Z,22.30
2019-01-03T18:48:10.240Z,22.39
2019-01-03T18:50:37.965Z,22.37
2019-01-03T18:53:06.458Z,22.39
2019-01-03T18:55:34.007Z,22.41
2019-01-03T18:58:01.770Z,22.47
2019-01-03T19:00:30.242Z,22.50
2019-01-03T19:02:58.242Z,22.54
2019-01-03T19:05:25.798Z,22.60
2019-01-03T19:07:53.490Z,22.60
2019-01-03T19:10:20.772Z,22.62
2019-01-03T19:12:48.324Z,22.60
2019-01-03T19:15:15.922Z,22.64
2019-01-03T19:17:43.600Z,22.62
2019-01-03T19:20:10.866Z,22.59
2019-01-03T19:22:39.238Z,22.66
2019-01-03T19:25:10.852Z,22.66
2019-01-03T19:27:39.456Z,22.70
2019-01-03T19:30:09.049Z,22.70
2019-01-03T19:32:36.406Z,22.70
2019-01-03T19:35:05.026Z,22.71
2019-01-03T19:37:32.981Z,22.67
2019-01-03T19:40:01.031Z,22.63
2019-01-03T19:42:28.429Z,22.59
2019-01-03T19:44:55.810Z,22.55
2019-01-03T19:47:23.363Z,22.51
2019-01-03T19:49:51.402Z,22.39
2019-01-03T19:52:19.449Z,22.45
2019-01-03T19:54:48.367Z,22.57
2019-01-03T19:57:15.605Z,22.52
2019-01-03T19:59:42.755Z,22.48
2019-01-03T20:02:09.970Z,22.52
2019-01-03T20:04:37.396Z,22.61
2019-01-03T20:07:04.846Z,22.64
2019-01-03T20:09:33.407Z,22.62
2019-01-03T20:12:01.950Z,22.62
2019-01-03T20:14:29.597Z,22.81
2019-01-03T20:16:57.316Z,22.67
2019-01-03T20:19:24.938Z,22.85
2019-01-03T20:21:52.236Z,22.79
2019-01-03T20:24:19.710Z,22.74
2019-01-03T20:26:46.791Z,22.74
2019-01-03T20:29:14.351Z,22.67
2019-01-03T20:31:42.512Z,22.67
2019-01-03T20:34:09.976Z,22.49
2019-01-03T20:36:38.232Z,22.63
2019-01-03T20:39:06.030Z,22.75
2019-01-03T20:41:33.376Z,22.65
2019-01-03T20:44:00.610Z,22.69
2019-01-03T20:46:28.327Z,22.66
2019-01-03T20:48:56.423Z,22.67
2019-01-03T20:51:24.423Z,22.71
2019-01-03T20:53:51.710Z,22.79
2019-01-03T20:56:18.979Z,22.81
2019-01-03T20:58:46.316Z,22.83
2019-01-03T21:01:13.590Z,22.77
2019-01-03T21:03:41.425Z,22.80
2019-01-03T21:06:08.691Z,22.74
2019-01-03T21:08:35.615Z,22.74
2019-01-03T21:11:02.867Z,22.73
2019-01-03T21:13:30.734Z,22.70
2019-01-03T21:15:58.237Z,22.70
2019-01-03T21:18:26.589Z,22.70
2019-01-03T21:20:54.844Z,22.62
2019-01-03T21:23:22.229Z,22.60
2019-01-03T21:25:49.478Z,22.60
2019-01-03T21:28:16.756Z,22.60
2019-01-03T21:30:44.708Z,22.64
2019-01-03T21:33:12.242Z,22.63
2019-01-03T21:35:39.491Z,22.56
2019-01-03T21:38:06.961Z,22.63
2019-01-03T21:40:34.244Z,22.62
2019-01-03T21:43:02.234Z,22.43
2019-01-03T21:45:29.734Z,22.49
2019-01-03T21:47:57.238Z,22.47
2019-01-03T21:50:24.831Z,22.45
2019-01-03T21:52:52.844Z,22.46
2019-01-03T21:55:20.447Z,22.48
2019-01-03T21:57:48.507Z,22.48
2019-01-03T22:00:16.961Z,22.49
2019-01-03T22:02:44.242Z,22.50
2019-01-03T22:05:11.793Z,22.49
2019-01-03T22:07:39.763Z,22.48
2019-01-03T22:10:08.784Z,22.46
2019-01-03T22:12:35.608Z,22.47
2019-01-03T22:15:03.086Z,22.39
2019-01-03T22:17:31.826Z,22.40
2019-01-03T22:19:59.427Z,22.40
2019-01-03T22:22:26.770Z,22.40
2019-01-03T22:24:53.970Z,22.38
2019-01-03T22:27:21.466Z,22.34
2019-01-03T22:32:00.722Z,22.44
2019-01-03T22:34:27.604Z,22.42
2019-01-03T22:36:54.878Z,22.41
2019-01-03T22:39:22.239Z,22.38
2019-01-03T22:41:49.729Z,22.38
2019-01-03T22:44:16.969Z,22.38
2019-01-03T22:46:44.485Z,22.33
2019-01-03T22:49:11.793Z,22.36
2019-01-03T22:51:39.845Z,22.34
2019-01-03T22:54:08.238Z,22.32
2019-01-03T22:56:36.233Z,22.32
2019-01-03T22:59:04.399Z,22.30
2019-01-03T23:01:31.715Z,22.30
2019-01-03T23:03:59.435Z,22.28
2019-01-03T23:07:27.235Z,22.32
2019-01-03T23:09:55.145Z,22.29
2019-01-03T23:12:22.985Z,22.30
2019-01-03T23:14:51.353Z,22.26
2019-01-03T23:17:19.397Z,22.26
2019-01-03T23:19:47.335Z,22.24
2019-01-03T23:22:15.240Z,22.24
2019-01-03T23:24:43.241Z,22.19
2019-01-03T23:27:10.755Z,22.22
2019-01-03T23:29:37.992Z,22.21
2019-01-03T23:32:05.935Z,22.25
2019-01-03T23:34:34.239Z,22.20
2019-01-03T23:37:02.463Z,22.16
2019-01-03T23:39:45.241Z,22.16
2019-01-03T23:42:13.875Z,22.21
2019-01-03T23:45:12.034Z,22.19
2019-01-03T23:47:40.501Z,22.19
2019-01-03T23:50:09.730Z,22.14
2019-01-03T23:52:39.523Z,22.16
2019-01-03T23:55:07.612Z,22.16
2019-01-03T23:57:36.438Z,22.14
